Terminal Aerodrome Forecast
Issued by NWS Upton, NY

Home | Current Version | Previous Version | Text Only | Print | Product List | Glossary On
Versions: 1 2 3 4 5 6 7 8 9 10 11 12 13 14 15 16 17 18 19 20 21 22 23 24 25 26 27 28 29 30 31 32
000
FTUS41 KOKX 182300
TAFJFK
TAF
KJFK 182338Z 1900/2006 15005KT P6SM BKN170
     FM190200 21005KT P6SM FEW020 BKN200
     FM190600 24005KT P6SM FEW020 BKN250
     FM190900 28007KT P6SM SCT250
     FM191200 32010KT P6SM FEW070
     FM191400 33014G21KT P6SM SKC
     FM200000 01011KT P6SM SKC=

USA.gov is the U.S. government's official web portal to all federal, state and local government web resources and services.